Time;durP1;ratioP1;P1;durP2;ratioP2;P2;SDS_P1;SDS_P2;PMS_P1;PMS_P2;Temp;Humidity;BMP_temperature;BMP_pressure;BME280_temperature;BME280_humidity;BME280_pressure;Samples;Min_cycle;Max_cycle;Signal;HPM_P1;HPM_P2
2022/05/02 00:00:49;;;;;;;1.35;1.33;;;;;;;20.98;38.00;101950.28;5012896;28;20198;-80
2022/05/02 00:03:15;;;;;;;1.70;1.60;;;;;;;20.97;37.87;101947.78;5013946;28;20030;-80
2022/05/02 00:05:41;;;;;;;1.50;1.40;;;;;;;20.98;37.67;101946.69;5012439;28;20030;-80
2022/05/02 00:08:07;;;;;;;1.30;1.30;;;;;;;20.97;37.72;101937.56;5013646;28;20026;-80
2022/05/02 00:10:33;;;;;;;1.45;1.45;;;;;;;20.97;37.75;101942.28;5012576;28;20025;-80
2022/05/02 00:12:59;;;;;;;1.70;1.60;;;;;;;20.96;37.66;101941.41;5014202;28;20034;-80
2022/05/02 00:15:24;;;;;;;1.50;1.40;;;;;;;20.96;38.01;101935.06;5013551;28;20110;-80
2022/05/02 00:17:56;;;;;;;1.60;1.50;;;;;;;20.96;38.05;101935.91;5013785;28;20034;-80
2022/05/02 00:20:23;;;;;;;1.58;1.50;;;;;;;20.96;37.61;101932.31;5014447;28;20053;-80
2022/05/02 00:22:48;;;;;;;1.70;1.60;;;;;;;20.95;37.80;101928.72;5013408;28;20057;-80
2022/05/02 00:25:14;;;;;;;1.83;1.73;;;;;;;20.95;37.73;101936.16;5013679;28;20065;-80
2022/05/02 00:27:40;;;;;;;1.30;1.30;;;;;;;20.94;37.78;101934.50;5013395;28;20045;-80
2022/05/02 00:30:07;;;;;;;1.55;1.55;;;;;;;20.93;37.41;101925.38;5012071;28;20139;-80
2022/05/02 00:32:33;;;;;;;1.60;1.50;;;;;;;20.94;37.93;101929.81;5013220;28;20037;-79
2022/05/02 00:34:58;;;;;;;1.60;1.50;;;;;;;20.94;37.67;101927.06;5012973;28;20038;-80
2022/05/02 00:37:24;;;;;;;1.42;1.40;;;;;;;20.94;37.86;101929.81;5013265;28;20434;-80
2022/05/02 00:39:50;;;;;;;1.60;1.50;;;;;;;20.93;37.75;101919.03;5013719;28;20041;-80
2022/05/02 00:42:15;;;;;;;2.78;1.73;;;;;;;20.92;37.75;101915.47;5012565;28;20030;-81
2022/05/02 00:44:43;;;;;;;1.60;1.50;;;;;;;20.92;37.89;101920.13;5012445;28;20034;-80
2022/05/02 00:47:09;;;;;;;1.35;1.25;;;;;;;20.91;37.98;101913.78;5013055;28;20034;-80
2022/05/02 00:49:36;;;;;;;1.60;1.50;;;;;;;20.92;37.71;101920.13;5011443;28;20382;-82
2022/05/02 00:52:01;;;;;;;1.73;1.63;;;;;;;20.91;37.92;101912.97;5012685;28;20052;-82
2022/05/02 00:54:26;;;;;;;1.48;1.38;;;;;;;20.91;37.75;101911.03;5011431;28;20125;-82
2022/05/02 00:56:52;;;;;;;1.50;1.40;;;;;;;20.90;37.87;101912.13;4995068;28;20034;-81
2022/05/02 00:59:21;;;;;;;1.48;1.42;;;;;;;20.89;37.67;101913.22;5012581;28;20029;-81
2022/05/02 01:01:47;;;;;;;1.60;1.50;;;;;;;20.90;37.84;101914.06;5012279;28;20042;-81
2022/05/02 01:04:12;;;;;;;1.77;1.67;;;;;;;20.89;37.88;101915.13;5012633;28;20370;-81
2022/05/02 01:09:22;;;;;;;1.65;1.55;;;;;;;20.88;38.02;101910.72;5012766;28;20045;-83
2022/05/02 01:11:47;;;;;;;1.58;1.48;;;;;;;20.88;37.69;101902.47;5012744;28;20034;-81
2022/05/02 01:14:12;;;;;;;1.65;1.55;;;;;;;20.88;37.75;101913.50;5012913;28;20442;-80
2022/05/02 01:16:38;;;;;;;1.73;1.63;;;;;;;20.87;37.88;101901.59;5011738;28;20038;-80
2022/05/02 01:19:03;;;;;;;1.50;1.45;;;;;;;20.85;38.04;101907.38;5012483;28;20170;-80
2022/05/02 01:21:29;;;;;;;1.60;1.50;;;;;;;20.85;38.04;101904.63;5012562;28;20038;-80
2022/05/02 01:23:59;;;;;;;1.65;1.55;;;;;;;20.85;37.71;101906.56;5011279;28;20121;-80
2022/05/02 01:26:24;;;;;;;1.55;1.55;;;;;;;20.85;37.82;101901.03;5012708;28;20386;-80
2022/05/02 01:28:55;;;;;;;1.60;1.50;;;;;;;20.84;37.74;101905.69;5011238;28;20030;-80
2022/05/02 01:31:21;;;;;;;1.90;1.80;;;;;;;20.83;37.58;101900.44;5012794;28;20034;-80
2022/05/02 01:33:49;;;;;;;2.03;1.92;;;;;;;20.83;37.90;101901.31;5012533;28;20143;-80
2022/05/02 01:36:15;;;;;;;1.35;1.33;;;;;;;20.83;37.93;101897.69;5012025;28;20466;-80
2022/05/02 01:38:42;;;;;;;1.40;1.40;;;;;;;20.82;37.92;101902.38;5011995;28;20034;-80
2022/05/02 01:41:08;;;;;;;1.55;1.45;;;;;;;20.82;37.93;101898.81;5012248;28;20041;-80
2022/05/02 01:43:34;;;;;;;1.48;1.38;;;;;;;20.81;37.77;101900.72;5011932;28;20113;-80
2022/05/02 01:46:01;;;;;;;1.50;1.40;;;;;;;20.81;37.98;101892.44;5012124;28;20061;-80
2022/05/02 01:48:27;;;;;;;1.60;1.50;;;;;;;20.81;37.64;101900.72;5011102;28;20121;-81
2022/05/02 01:50:53;;;;;;;1.73;1.55;;;;;;;20.81;37.92;101899.88;5012315;28;20037;-81
2022/05/02 01:53:19;;;;;;;1.55;1.45;;;;;;;20.81;37.83;101895.19;5011812;28;20401;-81
2022/05/02 01:55:44;;;;;;;1.63;1.52;;;;;;;20.80;37.87;101896.31;5012010;28;20038;-81
2022/05/02 01:58:10;;;;;;;1.58;1.48;;;;;;;20.80;37.98;101888.03;5010861;28;20049;-80
2022/05/02 02:00:36;;;;;;;1.60;1.50;;;;;;;20.79;37.82;101897.38;5011673;28;20083;-81
2022/05/02 02:03:02;;;;;;;1.60;1.50;;;;;;;20.78;37.85;101881.94;5010980;28;20160;-80
2022/05/02 02:08:11;;;;;;;1.60;1.50;;;;;;;20.77;37.64;101880.28;5010925;28;20114;-79
2022/05/02 02:10:38;;;;;;;1.35;1.35;;;;;;;20.78;37.73;101886.63;5011040;28;20529;-80
2022/05/02 02:13:04;;;;;;;1.55;1.48;;;;;;;20.77;37.83;101888.56;5011703;28;20124;-80
2022/05/02 02:15:29;;;;;;;1.60;1.50;;;;;;;20.77;37.76;101883.03;5012054;28;20083;-80
2022/05/02 02:17:55;;;;;;;1.60;1.50;;;;;;;20.77;37.75;101882.19;5011711;28;20041;-80
2022/05/02 02:20:20;;;;;;;1.63;1.52;;;;;;;20.75;37.84;101887.97;5010770;28;20054;-80
2022/05/02 02:22:46;;;;;;;1.60;1.50;;;;;;;20.76;37.76;101884.13;5011680;28;20125;-79
2022/05/02 02:25:11;;;;;;;1.42;1.35;;;;;;;20.75;37.71;101879.69;5011873;28;20451;-79
2022/05/02 02:27:36;;;;;;;1.42;1.42;;;;;;;;;;5012085;28;20090;-80
2022/05/02 02:30:03;;;;;;;1.45;1.38;;;;;;;20.74;37.51;101886.28;5011751;28;20033;-79
2022/05/02 02:32:28;;;;;;;1.40;1.40;;;;;;;20.75;37.70;101878.88;5011349;28;20087;-80
2022/05/02 02:34:54;;;;;;;1.75;1.65;;;;;;;20.75;37.92;101882.44;5011752;28;20026;-79
2022/05/02 02:37:19;;;;;;;1.88;1.77;;;;;;;20.74;37.87;101877.19;5011117;28;20401;-80
2022/05/02 02:39:46;;;;;;;1.60;1.50;;;;;;;20.74;37.72;101883.53;5011116;28;20041;-80
2022/05/02 02:42:11;;;;;;;1.45;1.35;;;;;;;20.74;37.71;101877.19;5011086;28;20497;-80
2022/05/02 02:44:37;;;;;;;1.60;1.50;;;;;;;20.73;37.42;101881.03;5011638;28;20101;-80
2022/05/02 02:47:03;;;;;;;1.90;1.80;;;;;;;20.73;37.77;101873.63;5010202;28;20159;-80
2022/05/02 02:49:28;;;;;;;1.67;1.58;;;;;;;20.73;37.53;101881.03;5011267;28;20025;-80
2022/05/02 02:51:54;;;;;;;1.55;1.45;;;;;;;20.73;37.72;101875.50;5009876;28;20116;-80
2022/05/02 02:54:20;;;;;;;1.70;1.60;;;;;;;20.72;37.34;101871.13;5011811;28;20052;-80
2022/05/02 02:56:45;;;;;;;1.80;1.70;;;;;;;20.72;37.64;101873.88;5010912;28;20044;-80
2022/05/02 02:59:11;;;;;;;1.60;1.50;;;;;;;20.72;37.59;101865.59;5011369;28;20049;-80
2022/05/02 03:01:36;;;;;;;1.95;1.80;;;;;;;20.71;37.58;101866.69;5011124;28;20086;-80
2022/05/02 03:06:46;;;;;;;1.77;1.55;;;;;;;20.68;37.75;101855.09;5011379;28;20048;-80
2022/05/02 03:09:12;;;;;;;1.48;1.48;;;;;;;20.70;37.52;101853.97;5011238;28;20038;-79
2022/05/02 03:11:37;;;;;;;1.60;1.50;;;;;;;20.70;37.60;101854.84;5011029;28;20409;-79
2022/05/02 03:14:03;;;;;;;1.60;1.50;;;;;;;20.68;37.65;101854.25;5010229;28;20454;-79
2022/05/02 03:16:28;;;;;;;1.52;1.42;;;;;;;20.68;37.48;101855.09;5011198;28;20458;-79
2022/05/02 03:18:54;;;;;;;1.52;1.48;;;;;;;20.68;37.56;101857.00;5010637;28;20481;-80
2022/05/02 03:21:20;;;;;;;1.63;1.52;;;;;;;20.68;37.62;101857.84;5011711;28;20053;-80
2022/05/02 03:23:46;;;;;;;1.80;1.70;;;;;;;20.67;37.51;101853.41;5011383;28;20050;-80
2022/05/02 03:26:11;;;;;;;1.60;1.50;;;;;;;20.67;37.66;101853.41;5009957;28;20026;-79
2022/05/02 03:28:36;;;;;;;1.50;1.50;;;;;;;20.67;37.67;101856.16;5009291;28;20103;-79
2022/05/02 03:31:02;;;;;;;1.30;1.30;;;;;;;20.66;37.61;101853.69;5012230;28;20446;-79
2022/05/02 03:33:28;;;;;;;1.63;1.52;;;;;;;20.66;37.49;101850.91;4997025;28;20038;-79
2022/05/02 03:35:54;;;;;;;1.60;1.50;;;;;;;20.66;37.47;101851.75;5014719;28;20057;-79
2022/05/02 03:38:20;;;;;;;2.67;1.92;;;;;;;20.66;37.58;101850.91;5014622;28;20113;-79
2022/05/02 03:40:45;;;;;;;1.40;1.40;;;;;;;20.65;37.67;101852.81;5013665;28;20041;-79
2022/05/02 03:43:11;;;;;;;1.63;1.52;;;;;;;20.64;37.55;101844.81;5013635;28;20036;-80
2022/05/02 03:45:36;;;;;;;1.63;1.52;;;;;;;20.65;37.56;101849.22;5013138;28;20038;-79
2022/05/02 03:48:02;;;;;;;2.00;1.50;;;;;;;20.64;37.72;101847.56;5014298;28;20064;-79
2022/05/02 03:50:27;;;;;;;1.50;1.40;;;;;;;20.65;37.47;101849.22;5012782;28;20034;-79
2022/05/02 03:52:52;;;;;;;1.55;1.50;;;;;;;20.64;37.70;101850.31;5013932;28;20124;-79
2022/05/02 03:55:18;;;;;;;1.30;1.30;;;;;;;20.64;37.68;101856.66;5013657;28;20462;-74
2022/05/02 03:57:43;;;;;;;1.50;1.40;;;;;;;20.64;37.60;101855.84;5012879;28;20045;-79
2022/05/02 04:00:10;;;;;;;1.60;1.50;;;;;;;20.64;37.62;101850.31;5012669;28;20466;-79
2022/05/02 04:02:35;;;;;;;1.75;1.65;;;;;;;20.63;37.54;101852.22;5013692;28;20118;-79
2022/05/02 04:05:01;;;;;;;1.40;1.40;;;;;;;20.63;38.02;101845.91;5013755;28;20113;-79
2022/05/02 04:07:26;;;;;;;1.35;1.35;;;;;;;20.62;37.80;101850.56;5029243;28;20366;-79
2022/05/02 04:09:52;;;;;;;1.85;1.75;;;;;;;20.63;37.63;101855.00;5013612;28;20036;-80
2022/05/02 04:12:17;;;;;;;1.40;1.40;;;;;;;20.62;37.67;101850.56;5012514;28;20038;-80
2022/05/02 04:14:42;;;;;;;1.20;1.20;;;;;;;20.61;37.64;101848.91;5013574;28;20042;-80
2022/05/02 04:17:09;;;;;;;1.80;1.70;;;;;;;20.62;37.42;101853.31;5013825;28;20034;-80
2022/05/02 04:19:35;;;;;;;1.90;1.80;;;;;;;20.62;37.54;101844.22;5012055;28;20103;-80
2022/05/02 04:22:00;;;;;;;1.65;1.55;;;;;;;20.61;37.55;101848.91;5014300;28;20377;-79
2022/05/02 04:24:25;;;;;;;1.55;1.45;;;;;;;20.62;37.55;101855.25;5013468;28;20026;-80
2022/05/02 04:26:51;;;;;;;1.63;1.52;;;;;;;20.60;37.52;101847.22;5013849;28;20030;-80
2022/05/02 04:29:16;;;;;;;1.55;1.45;;;;;;;20.60;37.61;101846.41;5012593;28;20523;-79
2022/05/02 04:31:42;;;;;;;1.70;1.60;;;;;;;20.60;37.59;101852.75;5013313;28;20526;-79
2022/05/02 04:34:07;;;;;;;1.65;1.55;;;;;;;20.60;37.48;101849.16;5013675;28;20041;-79
2022/05/02 04:36:33;;;;;;;1.70;1.60;;;;;;;20.60;37.42;101849.16;5013280;28;20454;-79
2022/05/02 04:38:58;;;;;;;1.80;1.70;;;;;;;20.60;37.56;101851.94;5013756;28;20026;-79
2022/05/02 04:41:23;;;;;;;2.03;1.83;;;;;;;20.60;37.52;101849.16;5012921;28;20433;-79
2022/05/02 04:43:51;;;;;;;1.52;1.42;;;;;;;20.58;37.52;101849.44;5012511;28;20030;-79
2022/05/02 04:46:19;;;;;;;1.65;1.55;;;;;;;20.59;37.54;101847.50;5012872;28;20117;-79
2022/05/02 04:48:44;;;;;;;1.80;1.70;;;;;;;20.60;37.39;101843.66;5013242;28;20037;-79
2022/05/02 04:51:10;;;;;;;1.70;1.60;;;;;;;20.59;37.70;101847.50;5013040;28;20121;-79
2022/05/02 04:53:35;;;;;;;1.38;1.35;;;;;;;20.59;37.53;101853.84;5012263;28;20094;-79
2022/05/02 04:56:01;;;;;;;1.83;1.73;;;;;;;20.60;37.48;101854.69;5012934;28;20123;-79
2022/05/02 04:58:26;;;;;;;1.60;1.50;;;;;;;20.59;37.54;101856.59;5012932;28;20038;-79
2022/05/02 05:00:52;;;;;;;1.65;1.55;;;;;;;20.58;37.53;101860.47;5012622;28;20086;-78
2022/05/02 05:03:17;;;;;;;1.65;1.55;;;;;;;20.59;37.49;101861.28;5013101;28;20120;-78
2022/05/02 05:05:43;;;;;;;1.55;1.50;;;;;;;20.59;37.50;101862.09;5012820;28;20026;-79
2022/05/02 05:08:08;;;;;;;1.33;1.33;;;;;;;20.59;37.51;101862.09;5012797;28;20034;-79
2022/05/02 05:10:47;;;;;;;1.75;1.65;;;;;;;20.60;37.75;101861.03;5012409;28;20061;-79
2022/05/02 05:13:19;;;;;;;1.70;1.60;;;;;;;20.60;37.53;101860.19;5013280;28;20112;-79
2022/05/02 05:16:24;;;;;;;1.60;1.50;;;;;;;20.61;37.64;101859.09;5013257;28;20022;-80
2022/05/02 05:19:08;;;;;;;1.95;1.65;;;;;;;20.62;37.54;101858.81;5012205;28;20065;-80
2022/05/02 05:21:44;;;;;;;1.42;1.42;;;;;;;20.60;37.58;101858.25;5010927;28;20512;-80
2022/05/02 05:24:27;;;;;;;1.70;1.60;;;;;;;20.61;37.80;101857.19;5012310;28;20070;-78
2022/05/02 05:27:27;;;;;;;2.47;2.20;;;;;;;20.59;36.73;101866.78;5013088;28;20065;-74
2022/05/02 05:29:58;;;;;;;3.53;3.25;;;;;;;20.24;35.73;101857.84;5012412;28;20033;-74
2022/05/02 05:32:45;;;;;;;4.47;4.07;;;;;;;19.86;36.86;101862.28;5012674;28;20116;-74
2022/05/02 05:35:15;;;;;;;5.80;4.75;;;;;;;19.49;35.39;101857.28;5012612;28;20057;-75
2022/05/02 05:38:04;;;;;;;5.60;5.10;;;;;;;19.22;36.32;101857.13;5011046;28;20041;-77
2022/05/02 05:40:47;;;;;;;5.80;5.20;;;;;;;18.96;36.88;101853.09;5012088;28;20520;-78
2022/05/02 05:43:34;;;;;;;6.30;5.70;;;;;;;18.77;37.46;101859.59;5011967;28;20445;-79
2022/05/02 05:46:17;;;;;;;6.57;5.97;;;;;;;18.62;37.36;101864.00;5012475;28;20110;-79
2022/05/02 05:49:01;;;;;;;6.78;6.13;;;;;;;18.49;37.60;101865.91;5011165;28;20037;-80
2022/05/02 05:51:38;;;;;;;6.72;6.03;;;;;;;18.36;37.32;101869.78;5011876;28;20355;-82
2022/05/02 05:54:41;;;;;;;7.57;6.10;;;;;;;18.32;37.75;101870.50;5011292;28;20028;-82
2022/05/02 05:57:27;;;;;;;8.63;6.47;;;;;;;18.25;37.69;101876.16;5010750;28;20041;-79
2022/05/02 06:00:09;;;;;;;7.85;6.40;;;;;;;18.19;37.72;101868.88;5011632;28;20112;-79
2022/05/02 06:02:53;;;;;;;7.30;6.60;;;;;;;18.20;38.34;101870.53;5012292;28;20113;-77
2022/05/02 06:05:18;;;;;;;7.95;6.00;;;;;;;18.20;38.18;101867.78;5011924;28;20037;-78
2022/05/02 06:07:46;;;;;;;6.68;5.97;;;;;;;18.18;37.97;101869.94;5012166;28;20030;-78
2022/05/02 06:10:14;;;;;;;7.55;6.30;;;;;;;18.14;38.08;101872.31;5012071;28;20033;-77
2022/05/02 06:12:42;;;;;;;6.82;6.22;;;;;;;18.13;38.28;101876.16;5011759;28;20073;-78
2022/05/02 06:20:43;;;;;;;6.90;6.20;;;;;;;18.10;38.54;101881.28;5011976;28;20111;-76
2022/05/02 06:23:12;;;;;;;6.78;6.07;;;;;;;18.18;38.74;101872.69;5011258;28;20390;-77
2022/05/02 06:25:37;;;;;;;7.10;5.70;;;;;;;18.32;38.65;101878.75;5010317;28;20034;-77
2022/05/02 06:28:05;;;;;;;6.32;5.72;;;;;;;18.50;38.31;101875.84;5012337;28;20038;-78
2022/05/02 06:30:33;;;;;;;5.45;4.95;;;;;;;18.68;38.21;101879.50;5011439;28;20076;-77
2022/05/02 06:33:05;;;;;;;5.07;4.63;;;;;;;18.83;38.10;101873.44;4994486;28;20049;-77
2022/05/02 06:35:55;;;;;;;5.05;4.60;;;;;;;18.96;37.86;101878.69;5012096;28;20030;-77
2022/05/02 06:38:24;;;;;;;4.78;4.38;;;;;;;19.08;37.97;101875.88;5011345;28;20080;-77
2022/05/02 06:41:07;;;;;;;4.32;4.00;;;;;;;19.20;37.52;101873.03;5011374;28;20030;-78
2022/05/02 06:44:13;;;;;;;5.00;4.50;;;;;;;19.28;37.58;101883.63;5011697;28;20030;-77
2022/05/02 06:47:15;;;;;;;4.60;4.20;;;;;;;19.38;37.49;101883.78;4950777;29;20125;-77
2022/05/02 06:49:43;;;;;;;4.22;3.90;;;;;;;19.44;37.79;101870.97;5011511;28;20086;-78
2022/05/02 06:52:11;;;;;;;4.13;3.80;;;;;;;19.49;37.77;101870.22;5010364;28;20038;-78
2022/05/02 06:54:39;;;;;;;4.15;3.83;;;;;;;19.55;37.73;101877.47;5009967;28;20480;-78
2022/05/02 06:57:16;;;;;;;3.83;3.45;;;;;;;19.58;37.66;101875.06;5011443;28;20109;-78
2022/05/02 06:59:44;;;;;;;4.40;3.97;;;;;;;19.62;37.66;101875.38;5011470;28;20155;-78
2022/05/02 07:02:13;;;;;;;3.88;3.58;;;;;;;19.65;37.71;101877.66;5011098;28;20406;-77
2022/05/02 07:04:48;;;;;;;3.80;3.50;;;;;;;19.70;37.79;101874.97;5011310;28;20034;-78
2022/05/02 07:07:46;;;;;;;3.97;3.35;;;;;;;19.75;37.43;101876.94;5014352;28;20034;-78
2022/05/02 07:10:25;;;;;;;3.47;3.17;;;;;;;19.76;37.64;101870.38;5015172;28;20026;-78
2022/05/02 07:12:56;;;;;;;4.35;3.08;;;;;;;19.79;37.70;101876.22;5014361;28;20482;-78
2022/05/02 07:15:30;;;;;;;3.25;2.97;;;;;;;19.81;37.82;101875.97;5014549;28;20474;-78
2022/05/02 07:18:18;;;;;;;3.20;2.95;;;;;;;19.86;37.61;101880.75;5013143;28;20026;-78
2022/05/02 07:21:00;;;;;;;3.50;3.20;;;;;;;19.86;37.65;101873.31;5014218;28;20046;-78
2022/05/02 07:23:40;;;;;;;3.30;3.10;;;;;;;19.87;37.96;101869.47;5014742;28;20438;-78
2022/05/02 07:26:14;;;;;;;3.30;3.00;;;;;;;19.89;37.86;101870.03;5014736;28;20034;-77
2022/05/02 07:28:50;;;;;;;3.22;3.00;;;;;;;19.91;37.72;101869.78;5014847;28;20075;-78
2022/05/02 07:31:21;;;;;;;3.83;3.00;;;;;;;19.92;37.64;101875.03;5012754;28;20026;-78
2022/05/02 07:33:54;;;;;;;3.03;2.83;;;;;;;19.94;37.85;101870.09;5012879;28;20068;-77
2022/05/02 07:36:24;;;;;;;3.03;2.83;;;;;;;19.95;37.88;101871.78;5014465;28;20122;-78
2022/05/02 07:39:16;;;;;;;2.80;2.60;;;;;;;19.96;37.71;101867.94;5013996;28;20057;-77
2022/05/02 07:41:43;;;;;;;3.20;2.90;;;;;;;19.98;37.90;101874.03;5014396;28;20030;-78
2022/05/02 07:44:12;;;;;;;2.90;2.60;;;;;;;20.00;38.00;101881.19;5013200;28;20037;-78
2022/05/02 07:46:37;;;;;;;3.05;2.83;;;;;;;20.01;37.98;101874.63;5012782;28;20057;-78
2022/05/02 07:49:04;;;;;;;2.70;2.50;;;;;;;20.02;37.85;101877.13;5012946;28;20469;-78
2022/05/02 07:51:31;;;;;;;2.88;2.67;;;;;;;20.03;37.92;101873.25;5013913;28;20073;-78
2022/05/02 07:53:58;;;;;;;2.75;2.55;;;;;;;20.04;37.70;101868.59;5012717;28;20121;-78
2022/05/02 07:56:27;;;;;;;2.88;2.63;;;;;;;20.05;37.96;101868.34;5013927;28;20037;-78
2022/05/02 07:58:53;;;;;;;2.50;2.30;;;;;;;20.06;37.89;101869.97;5014103;28;20022;-78
2022/05/02 08:01:20;;;;;;;2.72;2.53;;;;;;;20.08;37.92;101875.28;5012819;28;20037;-71
2022/05/02 08:03:46;;;;;;;2.80;2.33;;;;;;;20.08;38.26;101881.59;5013692;28;20059;-72
2022/05/02 08:06:18;;;;;;;2.67;2.25;;;;;;;20.09;38.11;101880.53;5012444;28;20069;-76
2022/05/02 08:08:57;;;;;;;2.65;2.45;;;;;;;20.08;38.45;101872.50;5013944;28;20030;-72
2022/05/02 08:12:00;;;;;;;2.80;2.60;;;;;;;20.12;37.90;101879.16;5013693;28;20075;-72
2022/05/02 08:14:35;;;;;;;2.70;2.42;;;;;;;20.12;38.05;101873.66;5013985;28;20030;-71
2022/05/02 08:17:17;;;;;;;3.65;2.65;;;;;;;20.13;37.91;101873.38;5013081;28;20071;-74
2022/05/02 08:20:09;;;;;;;2.50;2.30;;;;;;;20.17;37.87;101868.22;5013105;28;20389;-74
2022/05/02 08:29:04;;;;;;;2.45;2.25;;;;;;;20.20;37.97;101875.97;5013958;28;20048;-72
2022/05/02 08:31:58;;;;;;;2.33;2.13;;;;;;;20.19;37.98;101865.22;5013639;28;20054;-73
2022/05/02 08:34:38;;;;;;;2.20;2.00;;;;;;;20.20;38.22;101870.47;5013519;28;20083;-72
2022/05/02 08:37:28;;;;;;;2.28;2.17;;;;;;;20.24;38.31;101884.56;5012972;28;20054;-77
2022/05/02 08:40:19;;;;;;;2.25;1.98;;;;;;;20.25;38.36;101870.50;5013673;28;20091;-73
2022/05/02 08:43:22;;;;;;;2.30;2.10;;;;;;;20.26;38.21;101869.44;5006514;28;20053;-73
2022/05/02 08:46:06;;;;;;;2.35;2.22;;;;;;;20.25;37.95;101875.22;5013651;28;20101;-73
2022/05/02 08:52:41;;;;;;;2.13;2.03;;;;;;;20.28;37.89;101867.25;5013608;28;20087;-75
2022/05/02 08:55:34;;;;;;;2.03;1.92;;;;;;;20.27;38.04;101857.34;4953073;29;20057;-73
2022/05/02 08:58:15;;;;;;;2.38;1.90;;;;;;;20.29;37.99;101868.09;5013322;28;20052;-75
2022/05/02 09:01:21;;;;;;;2.42;2.22;;;;;;;20.31;38.44;101861.25;5011528;28;20034;-72
2022/05/02 09:04:28;;;;;;;2.63;1.88;;;;;;;20.32;38.03;101856.56;4991267;28;20042;-72
2022/05/02 09:07:33;;;;;;;2.05;1.95;;;;;;;20.33;37.82;101863.75;5011594;28;20040;-72
2022/05/02 09:10:23;;;;;;;2.38;2.17;;;;;;;20.33;38.07;101858.25;5004575;28;20049;-76
2022/05/02 09:13:19;;;;;;;2.95;2.10;;;;;;;20.36;37.91;101854.97;5013362;28;20462;-71
2022/05/02 09:15:57;;;;;;;2.10;2.00;;;;;;;20.33;37.73;101859.06;5013037;28;20055;-73
2022/05/02 09:18:42;;;;;;;1.98;1.88;;;;;;;20.35;37.96;101861.56;5012865;28;20053;-73
2022/05/02 09:21:34;;;;;;;2.17;1.90;;;;;;;20.37;38.01;101864.88;5012512;28;20386;-72
2022/05/02 09:24:19;;;;;;;;;;;;;;;20.37;38.14;101853.84;5013331;28;20033;-73
2022/05/02 09:27:21;;;;;;;1.92;1.83;;;;;;;20.37;38.07;101855.78;5012288;28;19917;-73
2022/05/02 09:30:12;;;;;;;2.03;1.92;;;;;;;20.38;38.20;101854.72;5012195;28;20117;-74
2022/05/02 09:32:47;;;;;;;1.88;1.75;;;;;;;20.39;38.27;101854.44;5012252;28;20091;-72
2022/05/02 09:35:23;;;;;;;1.83;1.73;;;;;;;20.38;38.14;101852.78;5012627;28;20033;-71
2022/05/02 09:38:08;;;;;;;1.80;1.70;;;;;;;20.39;37.82;101843.41;5012687;28;20026;-72
2022/05/02 09:40:41;;;;;;;1.80;1.70;;;;;;;20.38;37.39;101854.72;5012618;28;20058;-72
2022/05/02 09:49:36;;;;;;;;;;;;;;;20.39;37.19;101835.16;5012593;28;20106;-72
2022/05/02 09:52:15;;;;;;;2.10;2.00;;;;;;;20.38;36.87;101839.00;5011187;28;19920;-72
2022/05/02 09:57:59;;;;;;;2.28;2.08;;;;;;;20.39;37.13;101826.88;5011461;28;20061;-71
2022/05/02 10:01:06;;;;;;;1.93;1.83;;;;;;;20.40;37.46;101822.19;5011981;28;20042;-73
2022/05/02 10:03:37;;;;;;;2.67;2.47;;;;;;;20.36;36.27;101821.91;5010756;28;20083;-73
2022/05/02 10:06:39;;;;;;;3.10;2.33;;;;;;;20.31;36.10;101836.44;5011646;28;20037;-73
2022/05/02 10:09:16;;;;;;;2.55;2.35;;;;;;;20.25;35.40;101828.38;4980580;28;20046;-74
2022/05/02 10:12:03;;;;;;;3.00;2.80;;;;;;;20.23;35.29;101823.09;5010338;28;20065;-74
2022/05/02 10:14:34;;;;;;;3.00;2.70;;;;;;;20.18;32.63;101828.53;5011632;28;20057;-73
2022/05/02 10:17:07;;;;;;;3.10;2.90;;;;;;;20.14;33.84;101824.66;5011834;28;20034;-74
2022/05/02 10:19:51;;;;;;;3.00;2.80;;;;;;;20.11;33.52;101817.72;5011497;28;20146;-74
2022/05/02 10:22:47;;;;;;;3.10;2.80;;;;;;;20.09;34.19;101822.69;5011219;28;20511;-74
2022/05/02 10:25:35;;;;;;;3.13;2.80;;;;;;;20.06;34.36;101816.81;5011951;28;20030;-74
2022/05/02 10:28:35;;;;;;;3.38;3.08;;;;;;;20.03;34.38;101814.59;5010100;28;20030;-74
2022/05/02 10:31:13;;;;;;;2.95;2.70;;;;;;;20.00;33.59;101820.59;4993877;28;20469;-74
2022/05/02 10:33:50;;;;;;;3.00;2.80;;;;;;;20.01;33.72;101819.53;5012020;28;20037;-74
2022/05/02 10:36:19;;;;;;;2.97;2.67;;;;;;;20.00;32.34;101815.91;5012065;28;20057;-75
2022/05/02 10:39:02;;;;;;;2.90;2.70;;;;;;;20.01;32.78;101816.78;5011258;28;20030;-74
2022/05/02 10:41:41;;;;;;;2.90;2.70;;;;;;;19.99;32.97;101808.78;5009496;28;20057;-74
2022/05/02 10:44:06;;;;;;;2.88;2.67;;;;;;;19.99;31.76;101806.00;5010717;28;20029;-74
2022/05/02 10:46:33;;;;;;;2.85;2.65;;;;;;;20.00;32.42;101801.31;5011907;28;20114;-71
2022/05/02 10:49:28;;;;;;;3.08;2.70;;;;;;;20.02;33.31;101800.00;5011238;28;20121;-71
2022/05/02 10:52:13;;;;;;;2.90;2.70;;;;;;;20.03;33.38;101800.81;5011319;28;20071;-75
2022/05/02 10:54:55;;;;;;;2.85;2.65;;;;;;;20.03;32.95;101798.06;5011606;28;20086;-75
2022/05/02 10:57:40;;;;;;;2.90;2.70;;;;;;;20.00;32.10;101787.56;5011786;28;20116;-75
2022/05/02 11:00:09;;;;;;;2.75;2.55;;;;;;;20.00;31.91;101787.56;5011783;28;20033;-75
2022/05/02 11:02:38;;;;;;;3.03;2.83;;;;;;;20.00;32.26;101785.63;5011016;28;20111;-75
2022/05/02 11:05:05;;;;;;;2.70;2.50;;;;;;;20.01;31.70;101792.81;5010887;28;20053;-75
2022/05/02 11:07:44;;;;;;;2.90;2.70;;;;;;;20.04;32.41;101783.22;5011555;28;20029;-75
2022/05/02 11:10:13;;;;;;;2.75;2.55;;;;;;;20.03;30.96;101790.63;5011321;28;20113;-75
2022/05/02 11:13:03;;;;;;;2.80;2.60;;;;;;;20.04;32.50;101783.22;5011795;28;20026;-74
2022/05/02 11:15:44;;;;;;;2.80;2.60;;;;;;;20.04;32.34;101788.72;5011337;28;20057;-75
2022/05/02 11:21:39;;;;;;;2.92;2.72;;;;;;;20.03;31.95;101779.59;5010751;28;20103;-75
2022/05/02 11:24:37;;;;;;;2.80;2.60;;;;;;;20.04;31.79;101772.19;5009040;28;20409;-75
2022/05/02 11:27:33;;;;;;;2.50;2.30;;;;;;;20.05;32.00;101766.41;4988102;28;20053;-75
2022/05/02 11:30:07;;;;;;;2.80;2.60;;;;;;;20.06;31.79;101770.81;5000411;28;20061;-75
2022/05/02 11:32:54;;;;;;;2.42;2.22;;;;;;;20.06;32.10;101759.81;5010669;28;20061;-75
2022/05/02 11:35:28;;;;;;;2.75;2.55;;;;;;;20.04;31.95;101756.47;5011096;28;20034;-75
2022/05/02 11:38:30;;;;;;;2.47;2.28;;;;;;;20.07;32.58;101757.91;5011014;28;20025;-75
2022/05/02 11:41:09;;;;;;;2.30;2.20;;;;;;;20.05;31.70;101758.16;5011288;28;20034;-75
2022/05/02 11:43:38;;;;;;;2.55;2.35;;;;;;;20.06;31.47;101758.97;5010943;28;20028;-75
2022/05/02 11:46:18;;;;;;;2.78;2.58;;;;;;;20.07;31.41;101753.22;4977662;28;20030;-75
2022/05/02 11:49:09;;;;;;;2.70;2.42;;;;;;;20.11;32.47;101753.53;5010581;28;20499;-75
2022/05/02 11:51:45;;;;;;;2.78;2.58;;;;;;;20.09;32.10;101750.19;4988122;28;20058;-75
2022/05/02 11:54:36;;;;;;;2.70;2.50;;;;;;;20.10;32.37;101754.63;5013909;28;20040;-75
2022/05/02 11:57:17;;;;;;;2.45;2.20;;;;;;;20.11;32.05;101748.03;5013962;28;20538;-75
2022/05/02 11:59:50;;;;;;;3.05;2.70;;;;;;;20.12;31.72;101753.28;5014465;28;20029;-78
2022/05/02 12:02:45;;;;;;;2.63;2.42;;;;;;;20.17;32.86;101747.00;5013899;28;20107;-81
2022/05/02 12:05:32;;;;;;;2.70;2.50;;;;;;;20.18;31.99;101756.09;5012664;28;20034;-76
2022/05/02 12:08:03;;;;;;;2.53;2.33;;;;;;;20.19;32.66;101749.50;5014350;28;20057;-76
2022/05/02 12:10:42;;;;;;;2.33;2.22;;;;;;;20.23;33.02;101745.13;5014240;28;20073;-76
2022/05/02 12:13:12;;;;;;;2.22;2.10;;;;;;;20.24;32.95;101744.88;5013319;28;20456;-77
2022/05/02 12:15:54;;;;;;;2.05;1.95;;;;;;;20.29;33.07;101739.41;5012915;28;20029;-75
2022/05/02 12:18:19;;;;;;;2.50;2.30;;;;;;;20.30;33.25;101746.59;5013606;28;20100;-75
2022/05/02 12:20:53;;;;;;;2.05;1.95;;;;;;;20.34;33.37;101738.63;5013538;28;20066;-75
2022/05/02 12:23:21;;;;;;;1.90;1.80;;;;;;;20.37;33.59;101740.03;5014006;28;20022;-77
2022/05/02 12:25:49;;;;;;;2.00;1.90;;;;;;;20.40;33.77;101748.59;5013424;28;20034;-75
2022/05/02 12:28:17;;;;;;;2.10;1.90;;;;;;;20.42;33.93;101742.88;5013118;28;20522;-75
2022/05/02 12:30:50;;;;;;;1.75;1.65;;;;;;;20.45;33.83;101742.34;5012891;28;20390;-75
2022/05/02 12:33:18;;;;;;;1.67;1.58;;;;;;;20.47;34.27;101740.97;5011989;28;20066;-76